sensor_id;sensor_type;location;lat;lon;timestamp;temperature;humidity
30520;DHT22;17300;50.374;8.006;2023-02-01T00:00:10;9.70;57.20
30520;DHT22;17300;50.374;8.006;2023-02-01T00:02:38;9.60;57.10
30520;DHT22;17300;50.374;8.006;2023-02-01T00:05:07;9.60;57.10
30520;DHT22;17300;50.374;8.006;2023-02-01T00:07:35;9.60;57.20
30520;DHT22;17300;50.374;8.006;2023-02-01T00:10:02;9.60;57.30
30520;DHT22;17300;50.374;8.006;2023-02-01T00:12:29;9.60;57.40
30520;DHT22;17300;50.374;8.006;2023-02-01T00:14:56;9.60;57.40
30520;DHT22;17300;50.374;8.006;2023-02-01T00:17:22;9.60;57.50
30520;DHT22;17300;50.374;8.006;2023-02-01T00:19:49;9.60;57.60
30520;DHT22;17300;50.374;8.006;2023-02-01T00:22:16;9.70;57.70
30520;DHT22;17300;50.374;8.006;2023-02-01T00:24:44;9.70;57.70
30520;DHT22;17300;50.374;8.006;2023-02-01T00:27:11;9.70;57.70
30520;DHT22;17300;50.374;8.006;2023-02-01T00:29:43;9.70;57.60
30520;DHT22;17300;50.374;8.006;2023-02-01T00:32:09;9.70;57.50
30520;DHT22;17300;50.374;8.006;2023-02-01T00:34:36;9.70;57.50
30520;DHT22;17300;50.374;8.006;2023-02-01T00:37:03;9.70;58.00
30520;DHT22;17300;50.374;8.006;2023-02-01T00:39:30;9.80;57.60
30520;DHT22;17300;50.374;8.006;2023-02-01T00:41:59;9.70;57.50
30520;DHT22;17300;50.374;8.006;2023-02-01T00:44:26;9.80;57.70
30520;DHT22;17300;50.374;8.006;2023-02-01T00:46:53;9.80;57.60
30520;DHT22;17300;50.374;8.006;2023-02-01T00:49:20;9.80;57.60
30520;DHT22;17300;50.374;8.006;2023-02-01T00:51:47;9.80;57.70
30520;DHT22;17300;50.374;8.006;2023-02-01T00:54:13;9.80;57.70
30520;DHT22;17300;50.374;8.006;2023-02-01T00:56:40;9.80;57.70
30520;DHT22;17300;50.374;8.006;2023-02-01T00:59:10;9.80;57.70
30520;DHT22;17300;50.374;8.006;2023-02-01T01:01:37;9.90;57.80
30520;DHT22;17300;50.374;8.006;2023-02-01T01:04:04;9.90;57.70
30520;DHT22;17300;50.374;8.006;2023-02-01T01:06:32;9.90;57.70
30520;DHT22;17300;50.374;8.006;2023-02-01T01:09:02;9.90;57.70
30520;DHT22;17300;50.374;8.006;2023-02-01T01:11:31;10.00;56.80
30520;DHT22;17300;50.374;8.006;2023-02-01T01:13:59;10.00;56.80
30520;DHT22;17300;50.374;8.006;2023-02-01T01:16:28;10.00;56.80
30520;DHT22;17300;50.374;8.006;2023-02-01T01:18:56;10.00;56.80
30520;DHT22;17300;50.374;8.006;2023-02-01T01:21:23;10.10;56.80
30520;DHT22;17300;50.374;8.006;2023-02-01T01:23:50;10.10;56.80
30520;DHT22;17300;50.374;8.006;2023-02-01T01:26:18;10.10;56.80
30520;DHT22;17300;50.374;8.006;2023-02-01T01:28:45;10.10;56.80
30520;DHT22;17300;50.374;8.006;2023-02-01T01:31:13;10.10;56.80
30520;DHT22;17300;50.374;8.006;2023-02-01T01:33:42;10.20;56.80
30520;DHT22;17300;50.374;8.006;2023-02-01T01:36:10;10.20;56.80
30520;DHT22;17300;50.374;8.006;2023-02-01T01:38:37;10.20;56.80
30520;DHT22;17300;50.374;8.006;2023-02-01T01:41:04;10.20;56.80
30520;DHT22;17300;50.374;8.006;2023-02-01T01:43:49;10.30;56.80
30520;DHT22;17300;50.374;8.006;2023-02-01T01:46:17;10.30;56.90
30520;DHT22;17300;50.374;8.006;2023-02-01T01:48:47;10.30;56.70
30520;DHT22;17300;50.374;8.006;2023-02-01T01:51:16;10.40;56.70
30520;DHT22;17300;50.374;8.006;2023-02-01T01:53:46;10.30;56.60
30520;DHT22;17300;50.374;8.006;2023-02-01T01:56:14;10.40;56.70
30520;DHT22;17300;50.374;8.006;2023-02-01T01:58:41;10.40;56.60
30520;DHT22;17300;50.374;8.006;2023-02-01T02:01:08;10.40;56.60
30520;DHT22;17300;50.374;8.006;2023-02-01T02:03:39;10.40;56.50
30520;DHT22;17300;50.374;8.006;2023-02-01T02:06:12;10.40;56.50
30520;DHT22;17300;50.374;8.006;2023-02-01T02:08:41;10.40;56.40
30520;DHT22;17300;50.374;8.006;2023-02-01T02:11:08;10.40;56.30
30520;DHT22;17300;50.374;8.006;2023-02-01T02:13:39;10.40;56.30
30520;DHT22;17300;50.374;8.006;2023-02-01T02:16:44;10.30;56.20
30520;DHT22;17300;50.374;8.006;2023-02-01T02:22:48;10.30;56.30
30520;DHT22;17300;50.374;8.006;2023-02-01T02:28:57;10.30;56.20
30520;DHT22;17300;50.374;8.006;2023-02-01T02:31:46;10.30;56.10
30520;DHT22;17300;50.374;8.006;2023-02-01T02:34:25;10.30;56.20
30520;DHT22;17300;50.374;8.006;2023-02-01T02:37:02;10.30;56.20
30520;DHT22;17300;50.374;8.006;2023-02-01T02:39:38;10.20;56.10
30520;DHT22;17300;50.374;8.006;2023-02-01T02:42:13;10.30;56.20
30520;DHT22;17300;50.374;8.006;2023-02-01T02:45:06;10.30;56.20
30520;DHT22;17300;50.374;8.006;2023-02-01T02:47:56;10.20;56.00
30520;DHT22;17300;50.374;8.006;2023-02-01T02:50:29;10.30;56.00
30520;DHT22;17300;50.374;8.006;2023-02-01T02:53:18;10.30;56.10
30520;DHT22;17300;50.374;8.006;2023-02-01T02:56:04;10.30;56.00
30520;DHT22;17300;50.374;8.006;2023-02-01T02:58:50;10.30;56.00
30520;DHT22;17300;50.374;8.006;2023-02-01T03:01:35;10.30;55.90
30520;DHT22;17300;50.374;8.006;2023-02-01T03:04:21;10.40;56.00
30520;DHT22;17300;50.374;8.006;2023-02-01T03:06:50;10.40;55.90
30520;DHT22;17300;50.374;8.006;2023-02-01T03:09:22;10.40;55.90
30520;DHT22;17300;50.374;8.006;2023-02-01T03:11:56;10.40;55.90
30520;DHT22;17300;50.374;8.006;2023-02-01T03:14:44;10.50;55.90
30520;DHT22;17300;50.374;8.006;2023-02-01T03:17:14;10.40;55.80
30520;DHT22;17300;50.374;8.006;2023-02-01T03:19:45;10.40;55.80
30520;DHT22;17300;50.374;8.006;2023-02-01T03:22:17;10.40;55.70
30520;DHT22;17300;50.374;8.006;2023-02-01T03:24:47;10.50;55.80
30520;DHT22;17300;50.374;8.006;2023-02-01T03:27:17;10.50;55.80
30520;DHT22;17300;50.374;8.006;2023-02-01T03:29:47;10.50;55.70
30520;DHT22;17300;50.374;8.006;2023-02-01T03:32:15;10.50;55.70
30520;DHT22;17300;50.374;8.006;2023-02-01T03:34:42;10.50;55.70
30520;DHT22;17300;50.374;8.006;2023-02-01T03:37:10;10.50;55.60
30520;DHT22;17300;50.374;8.006;2023-02-01T03:39:43;10.50;55.60
30520;DHT22;17300;50.374;8.006;2023-02-01T03:42:14;10.50;56.30
30520;DHT22;17300;50.374;8.006;2023-02-01T03:44:48;10.50;55.50
30520;DHT22;17300;50.374;8.006;2023-02-01T03:47:17;10.50;55.50
30520;DHT22;17300;50.374;8.006;2023-02-01T03:49:49;10.50;55.50
30520;DHT22;17300;50.374;8.006;2023-02-01T03:52:20;10.50;55.50
30520;DHT22;17300;50.374;8.006;2023-02-01T03:54:50;10.50;55.50
30520;DHT22;17300;50.374;8.006;2023-02-01T03:57:21;10.50;55.50
30520;DHT22;17300;50.374;8.006;2023-02-01T03:59:49;10.50;55.50
30520;DHT22;17300;50.374;8.006;2023-02-01T04:02:16;10.50;55.40
30520;DHT22;17300;50.374;8.006;2023-02-01T04:04:43;10.50;55.40
30520;DHT22;17300;50.374;8.006;2023-02-01T04:07:10;10.50;55.40
30520;DHT22;17300;50.374;8.006;2023-02-01T04:09:37;10.50;55.40
30520;DHT22;17300;50.374;8.006;2023-02-01T04:12:05;10.50;55.40
30520;DHT22;17300;50.374;8.006;2023-02-01T04:14:32;10.50;55.40
30520;DHT22;17300;50.374;8.006;2023-02-01T04:16:59;10.50;55.30
30520;DHT22;17300;50.374;8.006;2023-02-01T04:19:25;10.50;55.20
30520;DHT22;17300;50.374;8.006;2023-02-01T04:21:52;10.50;55.30
30520;DHT22;17300;50.374;8.006;2023-02-01T04:24:19;10.50;55.30
30520;DHT22;17300;50.374;8.006;2023-02-01T04:26:45;10.50;55.40
30520;DHT22;17300;50.374;8.006;2023-02-01T04:29:13;10.50;55.40
30520;DHT22;17300;50.374;8.006;2023-02-01T04:31:40;10.40;55.30
30520;DHT22;17300;50.374;8.006;2023-02-01T04:34:06;10.50;55.30
30520;DHT22;17300;50.374;8.006;2023-02-01T04:36:33;10.40;55.20
30520;DHT22;17300;50.374;8.006;2023-02-01T04:39:00;10.40;55.20
30520;DHT22;17300;50.374;8.006;2023-02-01T04:41:26;10.40;55.20
30520;DHT22;17300;50.374;8.006;2023-02-01T04:43:54;10.50;55.30
30520;DHT22;17300;50.374;8.006;2023-02-01T04:46:22;10.40;55.20
30520;DHT22;17300;50.374;8.006;2023-02-01T04:48:49;10.40;55.20
30520;DHT22;17300;50.374;8.006;2023-02-01T04:51:15;10.40;55.10
30520;DHT22;17300;50.374;8.006;2023-02-01T04:53:43;10.40;55.20
30520;DHT22;17300;50.374;8.006;2023-02-01T04:56:10;10.40;55.10
30520;DHT22;17300;50.374;8.006;2023-02-01T04:58:36;10.40;55.10
30520;DHT22;17300;50.374;8.006;2023-02-01T05:01:03;10.50;55.20
30520;DHT22;17300;50.374;8.006;2023-02-01T05:03:32;10.50;55.10
30520;DHT22;17300;50.374;8.006;2023-02-01T05:05:59;10.50;55.00
30520;DHT22;17300;50.374;8.006;2023-02-01T05:08:26;10.50;54.80
30520;DHT22;17300;50.374;8.006;2023-02-01T05:10:54;10.50;54.70
30520;DHT22;17300;50.374;8.006;2023-02-01T05:13:20;10.40;54.40
30520;DHT22;17300;50.374;8.006;2023-02-01T05:16:05;10.40;54.40
30520;DHT22;17300;50.374;8.006;2023-02-01T05:18:33;10.40;54.30
30520;DHT22;17300;50.374;8.006;2023-02-01T05:21:00;10.30;54.20
30520;DHT22;17300;50.374;8.006;2023-02-01T05:23:27;10.20;54.10
30520;DHT22;17300;50.374;8.006;2023-02-01T05:25:58;10.20;54.10
30520;DHT22;17300;50.374;8.006;2023-02-01T05:28:25;10.10;54.10
30520;DHT22;17300;50.374;8.006;2023-02-01T05:30:51;10.10;54.00
30520;DHT22;17300;50.374;8.006;2023-02-01T05:33:18;10.00;53.90
30520;DHT22;17300;50.374;8.006;2023-02-01T05:35:46;10.00;54.00
30520;DHT22;17300;50.374;8.006;2023-02-01T05:38:12;9.90;54.80
30520;DHT22;17300;50.374;8.006;2023-02-01T05:40:39;9.90;54.90
30520;DHT22;17300;50.374;8.006;2023-02-01T05:43:06;9.80;54.90
30520;DHT22;17300;50.374;8.006;2023-02-01T05:45:32;9.80;54.90
30520;DHT22;17300;50.374;8.006;2023-02-01T05:47:59;9.80;55.00
30520;DHT22;17300;50.374;8.006;2023-02-01T05:50:26;9.70;54.90
30520;DHT22;17300;50.374;8.006;2023-02-01T05:52:54;9.70;54.90
30520;DHT22;17300;50.374;8.006;2023-02-01T05:55:20;9.60;55.00
30520;DHT22;17300;50.374;8.006;2023-02-01T05:57:47;9.60;55.00
30520;DHT22;17300;50.374;8.006;2023-02-01T06:00:14;9.60;55.00
30520;DHT22;17300;50.374;8.006;2023-02-01T06:02:41;9.50;54.90
30520;DHT22;17300;50.374;8.006;2023-02-01T06:05:08;9.50;55.00
30520;DHT22;17300;50.374;8.006;2023-02-01T06:07:34;9.40;55.00
30520;DHT22;17300;50.374;8.006;2023-02-01T06:10:03;9.40;55.00
30520;DHT22;17300;50.374;8.006;2023-02-01T06:12:30;9.40;55.00
30520;DHT22;17300;50.374;8.006;2023-02-01T06:14:57;9.30;55.00
30520;DHT22;17300;50.374;8.006;2023-02-01T06:17:24;9.30;55.00
30520;DHT22;17300;50.374;8.006;2023-02-01T06:19:50;9.30;55.00
30520;DHT22;17300;50.374;8.006;2023-02-01T06:22:17;9.30;55.00
30520;DHT22;17300;50.374;8.006;2023-02-01T06:24:44;9.20;55.00
30520;DHT22;17300;50.374;8.006;2023-02-01T06:27:12;9.20;55.00
30520;DHT22;17300;50.374;8.006;2023-02-01T06:29:38;9.20;55.00
30520;DHT22;17300;50.374;8.006;2023-02-01T06:32:05;9.10;55.00
30520;DHT22;17300;50.374;8.006;2023-02-01T06:34:32;9.10;55.00
30520;DHT22;17300;50.374;8.006;2023-02-01T06:36:58;9.10;55.00
30520;DHT22;17300;50.374;8.006;2023-02-01T06:39:25;9.10;55.00
30520;DHT22;17300;50.374;8.006;2023-02-01T06:41:52;9.10;55.00
30520;DHT22;17300;50.374;8.006;2023-02-01T06:44:20;9.10;55.00
30520;DHT22;17300;50.374;8.006;2023-02-01T06:46:47;9.00;54.90
30520;DHT22;17300;50.374;8.006;2023-02-01T06:49:14;9.00;54.90
30520;DHT22;17300;50.374;8.006;2023-02-01T06:51:40;9.00;54.90
30520;DHT22;17300;50.374;8.006;2023-02-01T06:54:07;9.00;55.00
30520;DHT22;17300;50.374;8.006;2023-02-01T06:56:34;9.00;55.00
30520;DHT22;17300;50.374;8.006;2023-02-01T06:59:03;9.00;55.00
30520;DHT22;17300;50.374;8.006;2023-02-01T07:01:31;9.00;55.00
30520;DHT22;17300;50.374;8.006;2023-02-01T07:03:58;9.00;54.90
30520;DHT22;17300;50.374;8.006;2023-02-01T07:06:25;9.00;54.80
30520;DHT22;17300;50.374;8.006;2023-02-01T07:08:52;9.00;54.80
30520;DHT22;17300;50.374;8.006;2023-02-01T07:11:21;9.00;54.90
30520;DHT22;17300;50.374;8.006;2023-02-01T07:13:48;9.00;54.90
30520;DHT22;17300;50.374;8.006;2023-02-01T07:16:17;9.00;54.90
30520;DHT22;17300;50.374;8.006;2023-02-01T07:18:46;9.00;55.00
30520;DHT22;17300;50.374;8.006;2023-02-01T07:21:13;9.00;55.00
30520;DHT22;17300;50.374;8.006;2023-02-01T07:23:40;9.00;54.90
30520;DHT22;17300;50.374;8.006;2023-02-01T07:26:09;9.00;54.90
30520;DHT22;17300;50.374;8.006;2023-02-01T07:28:36;9.00;55.00
30520;DHT22;17300;50.374;8.006;2023-02-01T07:31:03;9.10;55.10
30520;DHT22;17300;50.374;8.006;2023-02-01T07:33:30;9.10;55.20
30520;DHT22;17300;50.374;8.006;2023-02-01T07:36:00;9.10;55.20
30520;DHT22;17300;50.374;8.006;2023-02-01T07:38:28;9.10;55.10
30520;DHT22;17300;50.374;8.006;2023-02-01T07:40:57;9.20;55.20
30520;DHT22;17300;50.374;8.006;2023-02-01T07:43:24;9.20;55.20
30520;DHT22;17300;50.374;8.006;2023-02-01T07:45:51;9.20;55.10
30520;DHT22;17300;50.374;8.006;2023-02-01T07:48:18;9.30;55.20
30520;DHT22;17300;50.374;8.006;2023-02-01T07:50:45;9.40;55.20
30520;DHT22;17300;50.374;8.006;2023-02-01T07:53:13;9.40;55.10
30520;DHT22;17300;50.374;8.006;2023-02-01T07:55:40;9.40;55.10
30520;DHT22;17300;50.374;8.006;2023-02-01T07:58:07;9.50;55.20
30520;DHT22;17300;50.374;8.006;2023-02-01T08:00:34;9.60;55.40
30520;DHT22;17300;50.374;8.006;2023-02-01T08:03:18;9.60;55.40
30520;DHT22;17300;50.374;8.006;2023-02-01T08:05:44;9.70;55.40
30520;DHT22;17300;50.374;8.006;2023-02-01T08:08:12;9.70;55.40
30520;DHT22;17300;50.374;8.006;2023-02-01T08:10:39;9.80;55.40
30520;DHT22;17300;50.374;8.006;2023-02-01T08:13:06;9.90;55.40
30520;DHT22;17300;50.374;8.006;2023-02-01T08:15:32;10.00;54.50
30520;DHT22;17300;50.374;8.006;2023-02-01T08:17:59;10.10;54.60
30520;DHT22;17300;50.374;8.006;2023-02-01T08:20:27;10.10;54.60
30520;DHT22;17300;50.374;8.006;2023-02-01T08:22:54;10.30;54.60
30520;DHT22;17300;50.374;8.006;2023-02-01T08:25:23;10.30;54.50
30520;DHT22;17300;50.374;8.006;2023-02-01T08:27:50;10.40;54.60
30520;DHT22;17300;50.374;8.006;2023-02-01T08:30:17;10.50;54.50
30520;DHT22;17300;50.374;8.006;2023-02-01T08:32:44;10.60;54.40
30520;DHT22;17300;50.374;8.006;2023-02-01T08:35:10;10.70;54.20
30520;DHT22;17300;50.374;8.006;2023-02-01T08:37:37;10.80;54.20
30520;DHT22;17300;50.374;8.006;2023-02-01T08:40:05;10.80;54.00
30520;DHT22;17300;50.374;8.006;2023-02-01T08:42:33;10.90;54.20
30520;DHT22;17300;50.374;8.006;2023-02-01T08:45:18;11.00;54.10
30520;DHT22;17300;50.374;8.006;2023-02-01T08:47:45;11.00;54.00
30520;DHT22;17300;50.374;8.006;2023-02-01T08:50:13;11.10;53.90
30520;DHT22;17300;50.374;8.006;2023-02-01T08:52:40;11.20;53.80
30520;DHT22;17300;50.374;8.006;2023-02-01T08:55:07;11.20;53.70
30520;DHT22;17300;50.374;8.006;2023-02-01T08:57:35;11.30;53.80
30520;DHT22;17300;50.374;8.006;2023-02-01T09:00:04;11.30;53.60
30520;DHT22;17300;50.374;8.006;2023-02-01T09:02:31;11.40;53.60
30520;DHT22;17300;50.374;8.006;2023-02-01T09:04:58;11.40;53.40
30520;DHT22;17300;50.374;8.006;2023-02-01T09:07:24;11.40;53.30
30520;DHT22;17300;50.374;8.006;2023-02-01T09:09:51;11.50;53.20
30520;DHT22;17300;50.374;8.006;2023-02-01T09:12:19;11.50;53.10
30520;DHT22;17300;50.374;8.006;2023-02-01T09:14:47;11.50;52.90
30520;DHT22;17300;50.374;8.006;2023-02-01T09:17:14;11.50;52.80
30520;DHT22;17300;50.374;8.006;2023-02-01T09:19:41;11.50;52.70
30520;DHT22;17300;50.374;8.006;2023-02-01T09:22:07;11.40;52.60
30520;DHT22;17300;50.374;8.006;2023-02-01T09:24:34;11.40;52.50
30520;DHT22;17300;50.374;8.006;2023-02-01T09:27:01;11.40;52.60
30520;DHT22;17300;50.374;8.006;2023-02-01T09:29:28;11.40;52.50
30520;DHT22;17300;50.374;8.006;2023-02-01T09:31:56;11.40;52.50
30520;DHT22;17300;50.374;8.006;2023-02-01T09:34:22;11.40;52.50
30520;DHT22;17300;50.374;8.006;2023-02-01T09:36:49;11.40;52.50
30520;DHT22;17300;50.374;8.006;2023-02-01T09:39:16;11.40;52.50
30520;DHT22;17300;50.374;8.006;2023-02-01T09:41:51;11.30;52.50
30520;DHT22;17300;50.374;8.006;2023-02-01T09:44:31;11.40;52.60
30520;DHT22;17300;50.374;8.006;2023-02-01T09:47:00;11.40;52.60
30520;DHT22;17300;50.374;8.006;2023-02-01T09:49:29;11.50;52.90
30520;DHT22;17300;50.374;8.006;2023-02-01T09:51:57;11.60;52.90
30520;DHT22;17300;50.374;8.006;2023-02-01T09:54:27;11.60;53.10
30520;DHT22;17300;50.374;8.006;2023-02-01T09:56:58;11.60;52.80
30520;DHT22;17300;50.374;8.006;2023-02-01T09:59:32;11.60;52.60
30520;DHT22;17300;50.374;8.006;2023-02-01T10:02:04;11.70;52.90
30520;DHT22;17300;50.374;8.006;2023-02-01T10:04:31;11.70;52.80
30520;DHT22;17300;50.374;8.006;2023-02-01T10:07:09;11.80;52.90
30520;DHT22;17300;50.374;8.006;2023-02-01T10:09:50;11.80;52.40
30520;DHT22;17300;50.374;8.006;2023-02-01T10:15:28;12.00;52.20
30520;DHT22;17300;50.374;8.006;2023-02-01T10:18:19;12.00;52.20
30520;DHT22;17300;50.374;8.006;2023-02-01T10:20:57;12.00;52.10
30520;DHT22;17300;50.374;8.006;2023-02-01T10:23:47;12.10;52.00
30520;DHT22;17300;50.374;8.006;2023-02-01T10:26:19;12.10;51.70
30520;DHT22;17300;50.374;8.006;2023-02-01T10:28:49;12.10;52.00
30520;DHT22;17300;50.374;8.006;2023-02-01T10:31:17;12.00;51.80
30520;DHT22;17300;50.374;8.006;2023-02-01T10:33:47;12.00;51.70
30520;DHT22;17300;50.374;8.006;2023-02-01T10:36:16;12.00;51.70
30520;DHT22;17300;50.374;8.006;2023-02-01T10:38:46;12.00;51.70
30520;DHT22;17300;50.374;8.006;2023-02-01T10:41:15;12.00;51.80
30520;DHT22;17300;50.374;8.006;2023-02-01T10:43:44;12.00;51.90
30520;DHT22;17300;50.374;8.006;2023-02-01T10:46:14;12.00;51.90
30520;DHT22;17300;50.374;8.006;2023-02-01T10:48:40;12.00;52.00
30520;DHT22;17300;50.374;8.006;2023-02-01T10:51:16;12.00;52.10
30520;DHT22;17300;50.374;8.006;2023-02-01T10:53:49;12.10;52.10
30520;DHT22;17300;50.374;8.006;2023-02-01T10:56:22;12.10;52.20
30520;DHT22;17300;50.374;8.006;2023-02-01T10:58:49;12.20;52.00
30520;DHT22;17300;50.374;8.006;2023-02-01T11:01:19;12.20;52.10
30520;DHT22;17300;50.374;8.006;2023-02-01T11:03:52;12.20;52.00
30520;DHT22;17300;50.374;8.006;2023-02-01T11:06:26;12.30;51.90
30520;DHT22;17300;50.374;8.006;2023-02-01T11:08:55;12.30;51.80
30520;DHT22;17300;50.374;8.006;2023-02-01T11:11:22;12.30;51.80
30520;DHT22;17300;50.374;8.006;2023-02-01T11:13:55;12.30;51.70
30520;DHT22;17300;50.374;8.006;2023-02-01T11:16:29;12.40;51.60
30520;DHT22;17300;50.374;8.006;2023-02-01T11:18:58;12.30;51.50
30520;DHT22;17300;50.374;8.006;2023-02-01T11:21:27;12.40;51.90
30520;DHT22;17300;50.374;8.006;2023-02-01T11:23:54;12.40;52.00
30520;DHT22;17300;50.374;8.006;2023-02-01T11:26:23;12.50;52.00
30520;DHT22;17300;50.374;8.006;2023-02-01T11:28:57;12.60;52.10
30520;DHT22;17300;50.374;8.006;2023-02-01T11:31:25;12.70;52.00
30520;DHT22;17300;50.374;8.006;2023-02-01T11:33:57;12.70;52.00
30520;DHT22;17300;50.374;8.006;2023-02-01T11:36:28;12.80;52.10
30520;DHT22;17300;50.374;8.006;2023-02-01T11:39:09;12.80;52.00
30520;DHT22;17300;50.374;8.006;2023-02-01T11:42:00;13.00;51.90
30520;DHT22;17300;50.374;8.006;2023-02-01T11:44:31;13.10;52.20
30520;DHT22;17300;50.374;8.006;2023-02-01T11:47:22;13.20;52.80
30520;DHT22;17300;50.374;8.006;2023-02-01T11:49:51;13.30;51.60
30520;DHT22;17300;50.374;8.006;2023-02-01T11:52:30;13.50;52.20
30520;DHT22;17300;50.374;8.006;2023-02-01T11:55:31;13.60;51.40
30520;DHT22;17300;50.374;8.006;2023-02-01T11:58:12;13.60;51.10
30520;DHT22;17300;50.374;8.006;2023-02-01T12:00:53;13.80;51.90
30520;DHT22;17300;50.374;8.006;2023-02-01T12:03:44;13.90;51.90
30520;DHT22;17300;50.374;8.006;2023-02-01T12:06:19;14.00;51.40
30520;DHT22;17300;50.374;8.006;2023-02-01T12:09:04;14.10;51.90
30520;DHT22;17300;50.374;8.006;2023-02-01T12:11:44;14.30;51.30
30520;DHT22;17300;50.374;8.006;2023-02-01T12:14:30;14.50;51.40
30520;DHT22;17300;50.374;8.006;2023-02-01T12:20:10;14.80;51.30
30520;DHT22;17300;50.374;8.006;2023-02-01T12:22:48;14.90;50.40
30520;DHT22;17300;50.374;8.006;2023-02-01T12:25:31;15.00;50.30
30520;DHT22;17300;50.374;8.006;2023-02-01T12:28:26;15.00;50.10
30520;DHT22;17300;50.374;8.006;2023-02-01T12:33:56;15.20;50.00
30520;DHT22;17300;50.374;8.006;2023-02-01T12:36:32;15.20;50.10
30520;DHT22;17300;50.374;8.006;2023-02-01T12:39:12;15.20;49.70
30520;DHT22;17300;50.374;8.006;2023-02-01T12:41:53;15.20;49.00
30520;DHT22;17300;50.374;8.006;2023-02-01T12:44:29;15.20;48.70
30520;DHT22;17300;50.374;8.006;2023-02-01T12:46:59;15.10;48.50
30520;DHT22;17300;50.374;8.006;2023-02-01T12:52:30;14.90;48.50
30520;DHT22;17300;50.374;8.006;2023-02-01T12:55:06;14.90;48.70
30520;DHT22;17300;50.374;8.006;2023-02-01T12:57:37;14.80;48.80
30520;DHT22;17300;50.374;8.006;2023-02-01T13:02:43;14.70;48.90
30520;DHT22;17300;50.374;8.006;2023-02-01T13:05:15;14.70;49.00
30520;DHT22;17300;50.374;8.006;2023-02-01T13:07:47;14.60;49.00
30520;DHT22;17300;50.374;8.006;2023-02-01T13:10:18;14.60;48.80
30520;DHT22;17300;50.374;8.006;2023-02-01T13:12:57;14.60;48.80
30520;DHT22;17300;50.374;8.006;2023-02-01T13:15:28;14.60;48.50
30520;DHT22;17300;50.374;8.006;2023-02-01T13:18:00;14.50;48.40
30520;DHT22;17300;50.374;8.006;2023-02-01T13:20:31;14.50;48.30
30520;DHT22;17300;50.374;8.006;2023-02-01T13:23:05;14.40;48.40
30520;DHT22;17300;50.374;8.006;2023-02-01T13:25:39;14.30;48.20
30520;DHT22;17300;50.374;8.006;2023-02-01T13:28:16;14.30;48.30
30520;DHT22;17300;50.374;8.006;2023-02-01T13:31:01;14.20;48.20
30520;DHT22;17300;50.374;8.006;2023-02-01T13:33:44;14.20;48.10
30520;DHT22;17300;50.374;8.006;2023-02-01T13:39:54;14.10;48.00
30520;DHT22;17300;50.374;8.006;2023-02-01T13:42:27;14.00;48.00
30520;DHT22;17300;50.374;8.006;2023-02-01T13:44:59;13.90;48.10
30520;DHT22;17300;50.374;8.006;2023-02-01T13:47:30;13.90;48.00
30520;DHT22;17300;50.374;8.006;2023-02-01T13:50:00;13.80;48.10
30520;DHT22;17300;50.374;8.006;2023-02-01T13:52:38;13.80;48.10
30520;DHT22;17300;50.374;8.006;2023-02-01T13:55:25;13.70;48.10
30520;DHT22;17300;50.374;8.006;2023-02-01T13:58:00;13.70;48.10
30520;DHT22;17300;50.374;8.006;2023-02-01T14:00:30;13.60;48.30
30520;DHT22;17300;50.374;8.006;2023-02-01T14:03:14;13.60;48.40
30520;DHT22;17300;50.374;8.006;2023-02-01T14:06:01;13.60;48.20
30520;DHT22;17300;50.374;8.006;2023-02-01T14:08:41;13.60;48.10
30520;DHT22;17300;50.374;8.006;2023-02-01T14:11:36;13.60;48.30
30520;DHT22;17300;50.374;8.006;2023-02-01T14:17:37;13.60;48.50
30520;DHT22;17300;50.374;8.006;2023-02-01T14:23:22;13.50;48.70
30520;DHT22;17300;50.374;8.006;2023-02-01T14:26:16;13.50;48.70
30520;DHT22;17300;50.374;8.006;2023-02-01T14:28:58;13.50;48.70
30520;DHT22;17300;50.374;8.006;2023-02-01T14:31:37;13.40;48.70
30520;DHT22;17300;50.374;8.006;2023-02-01T14:34:16;13.40;48.60
30520;DHT22;17300;50.374;8.006;2023-02-01T14:36:46;13.40;48.70
30520;DHT22;17300;50.374;8.006;2023-02-01T14:39:40;13.40;48.80
30520;DHT22;17300;50.374;8.006;2023-02-01T14:42:21;13.30;48.70
30520;DHT22;17300;50.374;8.006;2023-02-01T14:44:49;13.30;48.80
30520;DHT22;17300;50.374;8.006;2023-02-01T14:47:31;13.20;48.90
30520;DHT22;17300;50.374;8.006;2023-02-01T14:50:16;13.20;49.00
30520;DHT22;17300;50.374;8.006;2023-02-01T14:52:45;13.20;48.90
30520;DHT22;17300;50.374;8.006;2023-02-01T14:55:16;13.10;49.00
30520;DHT22;17300;50.374;8.006;2023-02-01T14:57:46;13.10;49.00
30520;DHT22;17300;50.374;8.006;2023-02-01T15:00:19;13.00;49.00
30520;DHT22;17300;50.374;8.006;2023-02-01T15:02:54;13.00;49.00
30520;DHT22;17300;50.374;8.006;2023-02-01T15:05:40;12.90;49.00
30520;DHT22;17300;50.374;8.006;2023-02-01T15:08:14;12.80;49.10
30520;DHT22;17300;50.374;8.006;2023-02-01T15:10:45;12.80;49.10
30520;DHT22;17300;50.374;8.006;2023-02-01T15:13:20;12.70;49.10
30520;DHT22;17300;50.374;8.006;2023-02-01T15:16:05;12.70;49.30
30520;DHT22;17300;50.374;8.006;2023-02-01T15:18:36;12.60;49.20
30520;DHT22;17300;50.374;8.006;2023-02-01T15:21:05;12.60;49.30
30520;DHT22;17300;50.374;8.006;2023-02-01T15:23:32;12.50;49.30
30520;DHT22;17300;50.374;8.006;2023-02-01T15:25:59;12.50;49.40
30520;DHT22;17300;50.374;8.006;2023-02-01T15:28:26;12.40;49.40
30520;DHT22;17300;50.374;8.006;2023-02-01T15:30:58;12.40;49.50
30520;DHT22;17300;50.374;8.006;2023-02-01T15:33:29;12.30;49.40
30520;DHT22;17300;50.374;8.006;2023-02-01T15:36:09;12.30;49.50
30520;DHT22;17300;50.374;8.006;2023-02-01T15:38:39;12.30;49.50
30520;DHT22;17300;50.374;8.006;2023-02-01T15:41:08;12.30;49.50
30520;DHT22;17300;50.374;8.006;2023-02-01T15:43:38;12.30;49.60
30520;DHT22;17300;50.374;8.006;2023-02-01T15:46:12;12.20;49.60
30520;DHT22;17300;50.374;8.006;2023-02-01T15:48:45;12.20;49.60
30520;DHT22;17300;50.374;8.006;2023-02-01T15:51:19;12.20;49.70
30520;DHT22;17300;50.374;8.006;2023-02-01T15:53:59;12.10;49.60
30520;DHT22;17300;50.374;8.006;2023-02-01T15:56:29;12.10;49.50
30520;DHT22;17300;50.374;8.006;2023-02-01T15:59:02;12.10;49.60
30520;DHT22;17300;50.374;8.006;2023-02-01T16:01:29;12.10;49.70
30520;DHT22;17300;50.374;8.006;2023-02-01T16:04:19;12.10;50.30
30520;DHT22;17300;50.374;8.006;2023-02-01T16:06:52;12.10;49.60
30520;DHT22;17300;50.374;8.006;2023-02-01T16:09:20;12.10;49.60
30520;DHT22;17300;50.374;8.006;2023-02-01T16:11:52;12.10;49.60
30520;DHT22;17300;50.374;8.006;2023-02-01T16:14:19;12.10;49.60
30520;DHT22;17300;50.374;8.006;2023-02-01T16:16:46;12.10;49.60
30520;DHT22;17300;50.374;8.006;2023-02-01T16:19:13;12.10;49.60
30520;DHT22;17300;50.374;8.006;2023-02-01T16:21:39;12.10;49.60
30520;DHT22;17300;50.374;8.006;2023-02-01T16:24:08;12.10;49.60
30520;DHT22;17300;50.374;8.006;2023-02-01T16:26:35;12.10;49.60
30520;DHT22;17300;50.374;8.006;2023-02-01T16:29:02;12.10;49.60
30520;DHT22;17300;50.374;8.006;2023-02-01T16:31:34;12.10;49.60